createdAt,value
2017-10-18T00:00:06.554Z,0
2017-10-18T00:01:15.853Z,0
2017-10-18T00:02:24.707Z,0
2017-10-18T00:03:33.899Z,0
2017-10-18T00:04:42.749Z,0
2017-10-18T00:05:51.604Z,0
2017-10-18T00:07:00.701Z,0
2017-10-18T00:08:09.545Z,0
2017-10-18T00:09:18.393Z,0
2017-10-18T00:10:27.238Z,0
2017-10-18T00:11:36.089Z,0
2017-10-18T00:12:45.087Z,0
2017-10-18T00:13:53.933Z,0
2017-10-18T00:15:02.781Z,0
2017-10-18T00:16:11.629Z,0
2017-10-18T00:17:20.478Z,0
2017-10-18T00:18:29.728Z,0
2017-10-18T00:19:38.578Z,0
2017-10-18T00:20:47.430Z,0
2017-10-18T00:21:56.274Z,0
2017-10-18T00:23:05.120Z,0
2017-10-18T00:24:14.121Z,0
2017-10-18T00:25:22.970Z,0
2017-10-18T00:26:31.818Z,0
2017-10-18T00:27:40.667Z,0
2017-10-18T00:28:49.516Z,0
2017-10-18T00:29:58.614Z,0
2017-10-18T00:31:07.467Z,0
2017-10-18T00:32:16.308Z,0
2017-10-18T00:33:25.151Z,0
2017-10-18T00:34:33.998Z,0
2017-10-18T00:35:43.149Z,0
2017-10-18T00:36:51.997Z,0
2017-10-18T00:38:00.849Z,0
2017-10-18T00:39:10.042Z,0
2017-10-18T00:40:18.890Z,0
2017-10-18T00:41:27.936Z,0
2017-10-18T00:42:36.784Z,0
2017-10-18T00:43:45.631Z,0
2017-10-18T00:44:54.478Z,0
2017-10-18T00:46:03.327Z,0
2017-10-18T00:47:12.576Z,0
2017-10-18T00:48:21.431Z,0
2017-10-18T00:49:30.273Z,0
2017-10-18T00:50:39.124Z,0
2017-10-18T00:51:47.970Z,0
2017-10-18T00:52:57.018Z,0
2017-10-18T00:54:05.865Z,0
2017-10-18T00:55:14.713Z,0
2017-10-18T00:56:23.564Z,0
2017-10-18T00:57:32.411Z,0
2017-10-18T00:58:41.558Z,0
2017-10-18T00:59:50.409Z,0
2017-10-18T01:00:59.607Z,0
2017-10-18T01:02:08.456Z,0
2017-10-18T01:03:17.298Z,0
2017-10-18T01:04:26.490Z,0
2017-10-18T01:05:35.339Z,0
2017-10-18T01:06:44.564Z,0
2017-10-18T01:07:53.414Z,0
2017-10-18T01:09:02.263Z,0
2017-10-18T01:10:11.412Z,0
2017-10-18T01:11:20.259Z,0
2017-10-18T01:12:29.105Z,0
2017-10-18T01:13:37.951Z,0
2017-10-18T01:14:46.796Z,0
2017-10-18T01:15:55.645Z,0
2017-10-18T01:17:04.491Z,0
2017-10-18T01:18:13.338Z,0
2017-10-18T01:19:22.188Z,0
2017-10-18T01:20:31.039Z,0
2017-10-18T01:21:39.989Z,0
2017-10-18T01:22:48.835Z,0
2017-10-18T01:23:57.683Z,0
2017-10-18T01:25:06.529Z,0
2017-10-18T01:26:15.375Z,0
2017-10-18T01:27:24.622Z,0
2017-10-18T01:28:33.470Z,0
2017-10-18T01:29:42.316Z,0
2017-10-18T01:30:51.186Z,0
2017-10-18T01:32:00.012Z,0
2017-10-18T01:33:09.008Z,0
2017-10-18T01:34:17.857Z,0
2017-10-18T01:35:26.706Z,0
2017-10-18T01:36:35.555Z,0
2017-10-18T01:37:44.404Z,0
2017-10-18T01:38:53.854Z,0
2017-10-18T01:40:02.704Z,0
2017-10-18T01:41:11.553Z,0
2017-10-18T01:42:20.399Z,0
2017-10-18T01:43:29.247Z,0
2017-10-18T01:44:38.244Z,0
2017-10-18T01:45:47.091Z,0
2017-10-18T01:46:56.282Z,0
2017-10-18T01:48:05.131Z,0
2017-10-18T01:49:13.977Z,0
2017-10-18T01:50:22.973Z,0
2017-10-18T01:51:31.824Z,0
2017-10-18T01:52:41.030Z,0
2017-10-18T01:53:49.879Z,0
2017-10-18T01:54:58.728Z,0
2017-10-18T01:56:07.627Z,0
2017-10-18T01:57:16.479Z,0
2017-10-18T01:58:25.322Z,0
2017-10-18T01:59:34.166Z,0
2017-10-18T02:00:43.015Z,0
2017-10-18T02:01:52.009Z,0
2017-10-18T02:03:00.853Z,0
2017-10-18T02:04:09.705Z,0
2017-10-18T02:05:18.552Z,0
2017-10-18T02:06:27.398Z,0
2017-10-18T02:07:36.592Z,0
2017-10-18T02:08:45.443Z,0
2017-10-18T02:09:54.296Z,0
2017-10-18T02:11:03.138Z,0
2017-10-18T02:12:11.987Z,0
2017-10-18T02:13:21.134Z,0
2017-10-18T02:14:29.983Z,0
2017-10-18T02:15:38.832Z,0
2017-10-18T02:16:47.680Z,0
2017-10-18T02:17:56.537Z,0
2017-10-18T02:19:05.880Z,0
2017-10-18T02:20:14.729Z,0
2017-10-18T02:21:23.577Z,0
2017-10-18T02:22:32.426Z,0
2017-10-18T02:23:41.277Z,0
2017-10-18T02:24:50.329Z,0
2017-10-18T02:25:59.174Z,0
2017-10-18T02:27:08.023Z,0
2017-10-18T02:28:16.870Z,0
2017-10-18T02:29:25.719Z,0
2017-10-18T02:30:34.616Z,0
2017-10-18T02:31:43.467Z,0
2017-10-18T02:32:52.306Z,0
2017-10-18T02:34:01.509Z,0
2017-10-18T02:35:10.356Z,0
2017-10-18T02:36:19.303Z,0
2017-10-18T02:37:28.149Z,0
2017-10-18T02:38:36.998Z,0
2017-10-18T02:39:45.847Z,0
2017-10-18T02:40:55.040Z,0
2017-10-18T02:42:03.888Z,0
2017-10-18T02:43:12.737Z,0
2017-10-18T02:44:21.594Z,0
2017-10-18T02:45:30.436Z,0
2017-10-18T02:46:39.283Z,0
2017-10-18T02:47:48.279Z,0
2017-10-18T02:48:57.129Z,0
2017-10-18T02:50:05.973Z,0
2017-10-18T02:51:14.817Z,0
2017-10-18T02:52:23.667Z,0
2017-10-18T02:53:32.663Z,0
2017-10-18T02:54:41.513Z,0
2017-10-18T02:55:50.359Z,0
2017-10-18T02:56:59.206Z,0
2017-10-18T02:58:08.052Z,0
2017-10-18T02:59:17.000Z,0
2017-10-18T03:00:25.846Z,0
2017-10-18T03:01:34.691Z,0
2017-10-18T03:02:43.539Z,0
2017-10-18T03:03:52.385Z,0
2017-10-18T03:05:01.779Z,0
2017-10-18T03:06:10.624Z,0
2017-10-18T03:07:19.470Z,0
2017-10-18T03:08:28.318Z,0
2017-10-18T03:09:37.166Z,0
2017-10-18T03:10:46.114Z,0
2017-10-18T03:11:54.958Z,0
2017-10-18T03:13:03.804Z,0
2017-10-18T03:14:12.652Z,0
2017-10-18T03:15:21.498Z,0
2017-10-18T03:16:30.401Z,0
2017-10-18T03:17:39.596Z,0
2017-10-18T03:18:48.441Z,0
2017-10-18T03:19:57.636Z,0
2017-10-18T03:21:06.483Z,0
2017-10-18T03:22:15.476Z,0
2017-10-18T03:23:24.325Z,0
2017-10-18T03:24:33.175Z,0
2017-10-18T03:25:42.022Z,0
2017-10-18T03:26:50.870Z,0
2017-10-18T03:27:59.866Z,0
2017-10-18T03:29:08.714Z,0
2017-10-18T03:30:17.563Z,0
2017-10-18T03:31:26.408Z,0
2017-10-18T03:32:35.256Z,0
2017-10-18T03:33:44.102Z,0
2017-10-18T03:34:52.946Z,0
2017-10-18T03:36:01.796Z,0
2017-10-18T03:37:10.642Z,0
2017-10-18T03:38:19.489Z,0
2017-10-18T03:39:28.586Z,0
2017-10-18T03:40:37.435Z,0
2017-10-18T03:41:46.284Z,0
2017-10-18T03:42:55.474Z,0
2017-10-18T03:44:04.319Z,0
2017-10-18T03:45:13.318Z,0
2017-10-18T03:46:22.163Z,0
2017-10-18T03:47:31.011Z,0
2017-10-18T03:48:39.856Z,0
2017-10-18T03:49:48.704Z,0
2017-10-18T03:50:57.702Z,0
2017-10-18T03:52:06.549Z,0
2017-10-18T03:53:15.744Z,0
2017-10-18T03:54:24.588Z,0
2017-10-18T03:55:33.435Z,0
2017-10-18T03:56:42.380Z,0
2017-10-18T03:57:51.579Z,0
2017-10-18T03:59:00.426Z,0
2017-10-18T04:00:09.274Z,0
2017-10-18T04:01:18.123Z,0
2017-10-18T04:02:27.271Z,0
2017-10-18T04:03:36.114Z,0
2017-10-18T04:04:44.961Z,0
2017-10-18T04:05:53.807Z,0
2017-10-18T04:07:02.654Z,0
2017-10-18T04:08:11.754Z,0
2017-10-18T04:09:20.598Z,0
2017-10-18T04:10:29.448Z,0
2017-10-18T04:11:38.293Z,0
2017-10-18T04:12:47.157Z,0
2017-10-18T04:13:56.039Z,0
2017-10-18T04:15:04.885Z,0
2017-10-18T04:16:13.734Z,0
2017-10-18T04:17:22.579Z,0
2017-10-18T04:18:31.426Z,0
2017-10-18T04:19:40.473Z,0
2017-10-18T04:20:49.666Z,0
2017-10-18T04:21:58.514Z,0
2017-10-18T04:23:07.362Z,0
2017-10-18T04:24:16.210Z,0
2017-10-18T04:25:25.207Z,0
2017-10-18T04:26:34.055Z,0
2017-10-18T04:27:42.906Z,0
2017-10-18T04:28:51.754Z,0
2017-10-18T04:30:00.603Z,0
2017-10-18T04:31:09.750Z,0
2017-10-18T04:32:18.597Z,0
2017-10-18T04:33:27.442Z,0
2017-10-18T04:34:36.288Z,0
2017-10-18T04:35:45.135Z,0
2017-10-18T04:36:54.031Z,0
2017-10-18T04:38:02.878Z,0
2017-10-18T04:39:11.727Z,0
2017-10-18T04:40:20.578Z,0
2017-10-18T04:41:29.425Z,0
2017-10-18T04:42:38.302Z,0
2017-10-18T04:43:47.148Z,0
2017-10-18T04:44:55.997Z,0
2017-10-18T04:46:04.841Z,0
2017-10-18T04:47:13.688Z,0
2017-10-18T04:48:23.391Z,0
2017-10-18T04:49:32.269Z,0
2017-10-18T04:50:41.117Z,0
2017-10-18T04:51:49.971Z,0
2017-10-18T04:52:58.906Z,0
2017-10-18T04:54:09.032Z,0
2017-10-18T04:55:17.891Z,0
2017-10-18T04:56:26.739Z,0
2017-10-18T04:57:35.599Z,0
2017-10-18T04:58:44.447Z,0
2017-10-18T04:59:56.341Z,0
2017-10-18T05:01:16.482Z,0
2017-10-18T05:02:25.346Z,0
2017-10-18T05:03:34.204Z,0
2017-10-18T05:04:43.652Z,0
2017-10-18T05:05:54.449Z,0
2017-10-18T05:07:04.133Z,0
2017-10-18T05:08:13.140Z,0
2017-10-18T05:09:21.992Z,0
2017-10-18T05:10:30.846Z,0
2017-10-18T05:11:39.696Z,0
2017-10-18T05:12:48.572Z,0
2017-10-18T05:13:57.495Z,0
2017-10-18T05:15:06.349Z,0
2017-10-18T05:16:15.200Z,0
2017-10-18T05:17:24.079Z,0
2017-10-18T05:18:32.941Z,0
2017-10-18T05:19:42.273Z,0
2017-10-18T05:20:51.105Z,0
2017-10-18T05:21:59.965Z,0
2017-10-18T05:23:08.817Z,0
2017-10-18T05:24:17.666Z,0
2017-10-18T05:25:26.712Z,0
2017-10-18T05:26:35.565Z,0
2017-10-18T05:27:44.420Z,0
2017-10-18T05:28:53.273Z,0
2017-10-18T05:30:03.175Z,0
2017-10-18T05:31:12.323Z,0
2017-10-18T05:32:21.216Z,4
2017-10-18T05:33:30.065Z,4
2017-10-18T05:34:38.924Z,0
2017-10-18T05:35:47.807Z,4
2017-10-18T05:36:57.159Z,4
2017-10-18T05:38:06.008Z,4
2017-10-18T05:39:14.878Z,8
2017-10-18T05:40:23.777Z,8
2017-10-18T05:41:32.666Z,8
2017-10-18T05:42:41.595Z,12
2017-10-18T05:43:50.446Z,12
2017-10-18T05:44:59.301Z,16
2017-10-18T05:46:08.150Z,16
2017-10-18T05:47:17.001Z,20
2017-10-18T05:48:25.999Z,24
2017-10-18T05:49:34.865Z,28
2017-10-18T05:50:43.715Z,32
2017-10-18T05:51:52.575Z,36
2017-10-18T05:53:01.429Z,40
2017-10-18T05:54:10.479Z,48
2017-10-18T05:55:19.394Z,52
2017-10-18T05:56:28.240Z,56
2017-10-18T05:57:37.089Z,64
2017-10-18T05:58:45.942Z,68
2017-10-18T05:59:54.938Z,72
2017-10-18T06:01:03.787Z,80
2017-10-18T06:02:12.636Z,80
2017-10-18T06:03:21.484Z,84
2017-10-18T06:04:30.333Z,92
2017-10-18T06:05:39.234Z,96
2017-10-18T06:06:48.080Z,100
2017-10-18T06:07:56.930Z,104
2017-10-18T06:09:05.783Z,108
2017-10-18T06:10:14.632Z,112
2017-10-18T06:11:23.737Z,120
2017-10-18T06:12:32.582Z,132
2017-10-18T06:13:41.432Z,136
2017-10-18T06:14:50.282Z,144
2017-10-18T06:15:59.130Z,156
2017-10-18T06:17:08.379Z,160
2017-10-18T06:18:17.308Z,164
2017-10-18T06:19:26.256Z,168
2017-10-18T06:20:35.163Z,172
2017-10-18T06:21:44.078Z,164
2017-10-18T06:22:53.094Z,164
2017-10-18T06:24:02.051Z,164
2017-10-18T06:25:11.002Z,156
2017-10-18T06:26:20.000Z,156
2017-10-18T06:27:29.167Z,164
2017-10-18T06:28:38.356Z,176
2017-10-18T06:29:47.301Z,192
2017-10-18T06:30:56.187Z,212
2017-10-18T06:32:05.042Z,220
2017-10-18T06:33:13.889Z,228
2017-10-18T06:34:22.891Z,236
2017-10-18T06:35:31.741Z,244
2017-10-18T06:36:40.591Z,260
2017-10-18T06:37:49.439Z,276
2017-10-18T06:38:58.289Z,300
2017-10-18T06:40:07.142Z,336
2017-10-18T06:41:15.992Z,372
2017-10-18T06:42:24.839Z,392
2017-10-18T06:43:33.694Z,404
2017-10-18T06:44:42.543Z,424
2017-10-18T06:45:51.493Z,440
2017-10-18T06:47:00.342Z,444
2017-10-18T06:48:09.197Z,444
2017-10-18T06:49:18.044Z,444
2017-10-18T06:50:26.894Z,444
2017-10-18T06:51:35.995Z,448
2017-10-18T06:52:45.197Z,456
2017-10-18T06:53:54.045Z,476
2017-10-18T06:55:03.265Z,512
2017-10-18T06:56:12.438Z,528
2017-10-18T06:57:21.285Z,548
2017-10-18T06:58:30.133Z,588
2017-10-18T06:59:38.981Z,636
2017-10-18T07:00:47.830Z,680
2017-10-18T07:01:56.680Z,720
2017-10-18T07:03:05.576Z,748
2017-10-18T07:04:14.427Z,800
2017-10-18T07:05:23.276Z,868
2017-10-18T07:06:32.126Z,900
2017-10-18T07:07:40.971Z,876
2017-10-18T07:08:49.919Z,848
2017-10-18T07:09:58.768Z,904
2017-10-18T07:11:07.626Z,956
2017-10-18T07:12:16.480Z,968
2017-10-18T07:13:25.331Z,948
2017-10-18T07:14:34.381Z,956
2017-10-18T07:15:43.231Z,968
2017-10-18T07:16:52.081Z,964
2017-10-18T07:18:00.932Z,948
2017-10-18T07:19:09.782Z,940
2017-10-18T07:20:18.828Z,968
2017-10-18T07:21:27.676Z,1000
2017-10-18T07:22:36.528Z,1024
2017-10-18T07:23:45.374Z,1064
2017-10-18T07:24:54.223Z,1116
2017-10-18T07:26:03.272Z,1176
2017-10-18T07:27:12.125Z,1216
2017-10-18T07:28:21.316Z,1248
2017-10-18T07:29:30.166Z,1276
2017-10-18T07:30:39.013Z,1316
2017-10-18T07:31:47.862Z,1368
2017-10-18T07:32:56.712Z,1440
2017-10-18T07:34:05.564Z,1492
2017-10-18T07:35:14.415Z,1492
2017-10-18T07:36:23.265Z,1484
2017-10-18T07:37:32.316Z,1512
2017-10-18T07:38:41.164Z,1484
2017-10-18T07:39:50.013Z,1440
2017-10-18T07:40:58.864Z,1368
2017-10-18T07:42:07.713Z,1344
2017-10-18T07:43:16.711Z,1336
2017-10-18T07:44:25.563Z,1316
2017-10-18T07:45:34.415Z,1288
2017-10-18T07:46:43.620Z,1248
2017-10-18T07:47:52.468Z,1240
2017-10-18T07:49:01.891Z,1264
2017-10-18T07:50:10.741Z,1328
2017-10-18T07:51:19.587Z,1440
2017-10-18T07:52:28.438Z,1496
2017-10-18T07:53:37.287Z,1492
2017-10-18T07:54:46.388Z,1500
2017-10-18T07:55:55.244Z,1512
2017-10-18T07:57:04.092Z,1500
2017-10-18T07:58:12.941Z,1428
2017-10-18T07:59:21.791Z,1408
2017-10-18T08:00:30.791Z,1424
2017-10-18T08:01:39.640Z,1424
2017-10-18T08:02:48.495Z,1484
2017-10-18T08:03:57.344Z,1528
2017-10-18T08:05:06.194Z,1540
2017-10-18T08:06:15.241Z,1552
2017-10-18T08:07:24.092Z,1556
2017-10-18T08:08:32.941Z,1552
2017-10-18T08:09:41.797Z,1536
2017-10-18T08:10:50.649Z,1524
2017-10-18T08:11:59.647Z,1504
2017-10-18T08:13:08.492Z,1496
2017-10-18T08:14:17.341Z,1488
2017-10-18T08:15:26.189Z,1492
2017-10-18T08:16:35.040Z,1508
2017-10-18T08:17:43.937Z,1540
2017-10-18T08:18:52.786Z,1556
2017-10-18T08:20:01.635Z,1572
2017-10-18T08:21:10.483Z,1612
2017-10-18T08:22:19.350Z,1640
2017-10-18T08:23:28.204Z,1656
2017-10-18T08:24:37.056Z,1668
2017-10-18T08:25:45.908Z,1700
2017-10-18T08:26:54.770Z,1744
2017-10-18T08:28:03.969Z,1788
2017-10-18T08:29:12.966Z,1812
2017-10-18T08:30:21.820Z,1812
2017-10-18T08:31:30.668Z,1812
2017-10-18T08:32:39.519Z,1800
2017-10-18T08:33:48.368Z,1820
2017-10-18T08:34:57.275Z,1856
2017-10-18T08:36:06.470Z,1900
2017-10-18T08:37:15.322Z,1880
2017-10-18T08:38:24.516Z,1884
2017-10-18T08:39:33.369Z,1880
2017-10-18T08:40:42.371Z,1920
2017-10-18T08:41:51.219Z,2012
2017-10-18T08:43:00.071Z,2076
2017-10-18T08:44:08.928Z,2108
2017-10-18T08:45:17.774Z,2092
2017-10-18T08:46:26.822Z,2000
2017-10-18T08:47:35.671Z,1972
2017-10-18T08:48:44.521Z,2000
2017-10-18T08:49:53.372Z,2052
2017-10-18T08:51:02.243Z,2100
2017-10-18T08:52:11.172Z,2124
2017-10-18T08:53:20.025Z,2176
2017-10-18T08:54:28.875Z,2208
2017-10-18T08:55:37.735Z,2244
2017-10-18T08:56:46.590Z,2280
2017-10-18T08:57:55.934Z,2296
2017-10-18T08:59:04.782Z,2288
2017-10-18T09:00:13.630Z,2280
2017-10-18T09:01:24.312Z,2232
2017-10-18T09:02:31.332Z,2208
2017-10-18T09:03:40.231Z,2200
2017-10-18T09:04:49.085Z,2184
2017-10-18T09:05:57.936Z,2220
2017-10-18T09:07:06.789Z,2304
2017-10-18T09:08:15.640Z,2368
2017-10-18T09:09:24.938Z,2376
2017-10-18T09:10:33.788Z,2380
2017-10-18T09:11:42.639Z,2368
2017-10-18T09:12:51.498Z,2368
2017-10-18T09:14:00.697Z,2404
2017-10-18T09:15:09.695Z,2416
2017-10-18T09:16:18.545Z,2424
2017-10-18T09:17:27.395Z,2468
2017-10-18T09:18:36.247Z,2564
2017-10-18T09:19:45.098Z,2672
2017-10-18T09:20:54.250Z,2704
2017-10-18T09:22:03.451Z,2724
2017-10-18T09:23:12.309Z,2720
2017-10-18T09:24:21.159Z,2716
2017-10-18T09:25:30.357Z,2712
2017-10-18T09:26:39.255Z,2704
2017-10-18T09:27:48.103Z,2712
2017-10-18T09:28:56.954Z,2716
2017-10-18T09:30:05.804Z,2704
2017-10-18T09:31:14.655Z,2720
2017-10-18T09:32:23.704Z,2728
2017-10-18T09:33:32.559Z,2740
2017-10-18T09:34:41.410Z,2788
2017-10-18T09:35:50.262Z,2832
2017-10-18T09:36:59.111Z,2840
2017-10-18T09:38:07.964Z,2828
2017-10-18T09:39:16.813Z,2812
2017-10-18T09:40:25.665Z,2800
2017-10-18T09:41:34.513Z,2760
2017-10-18T09:42:43.365Z,2728
2017-10-18T09:43:52.568Z,2848
2017-10-18T09:45:01.418Z,2956
2017-10-18T09:46:10.270Z,3036
2017-10-18T09:47:19.119Z,3104
2017-10-18T09:48:27.972Z,3136
2017-10-18T09:49:37.227Z,3156
2017-10-18T09:50:46.078Z,3172
2017-10-18T09:51:54.929Z,3188
2017-10-18T09:53:03.783Z,3184
2017-10-18T09:54:12.631Z,3212
2017-10-18T09:55:21.483Z,3232
2017-10-18T09:56:30.333Z,3244
2017-10-18T09:57:39.184Z,3252
2017-10-18T09:58:48.034Z,3236
2017-10-18T09:59:56.883Z,3236
2017-10-18T10:01:05.885Z,3232
2017-10-18T10:02:14.746Z,3244
2017-10-18T10:03:23.600Z,3284
2017-10-18T10:04:32.452Z,3332
2017-10-18T10:05:41.303Z,3368
2017-10-18T10:06:50.306Z,3376
2017-10-18T10:07:59.162Z,3356
2017-10-18T10:09:08.012Z,3392
2017-10-18T10:10:16.864Z,3436
2017-10-18T10:11:26.059Z,3448
2017-10-18T10:12:34.957Z,3444
2017-10-18T10:13:43.806Z,3452
2017-10-18T10:14:52.657Z,3460
2017-10-18T10:16:01.508Z,3492
2017-10-18T10:17:10.362Z,3536
2017-10-18T10:18:19.465Z,3600
2017-10-18T10:19:28.314Z,3644
2017-10-18T10:20:37.170Z,3688
2017-10-18T10:21:46.378Z,3696
2017-10-18T10:22:55.236Z,3696
2017-10-18T10:24:04.488Z,3708
2017-10-18T10:25:13.342Z,3764
2017-10-18T10:26:22.194Z,3812
2017-10-18T10:27:31.045Z,3840
2017-10-18T10:28:39.897Z,3848
2017-10-18T10:29:48.897Z,3844
2017-10-18T10:30:57.751Z,3848
2017-10-18T10:32:06.601Z,3860
2017-10-18T10:33:15.454Z,3880
2017-10-18T10:34:24.304Z,3932
2017-10-18T10:35:33.408Z,3960
2017-10-18T10:36:42.269Z,3988
2017-10-18T10:37:51.117Z,4012
2017-10-18T10:38:59.968Z,4028
2017-10-18T10:40:08.821Z,4036
2017-10-18T10:41:17.825Z,4016
2017-10-18T10:42:26.679Z,3968
2017-10-18T10:43:35.537Z,3916
2017-10-18T10:44:44.733Z,3888
2017-10-18T10:45:53.586Z,3916
2017-10-18T10:47:02.884Z,3932
2017-10-18T10:48:11.738Z,4008
2017-10-18T10:49:20.588Z,4068
2017-10-18T10:50:29.441Z,4136
2017-10-18T10:51:38.294Z,4228
2017-10-18T10:52:47.143Z,4292
2017-10-18T10:53:55.998Z,4336
2017-10-18T10:55:04.852Z,4388
2017-10-18T10:56:13.702Z,4396
2017-10-18T10:57:22.554Z,4396
2017-10-18T10:58:31.657Z,4408
2017-10-18T10:59:40.509Z,4408
2017-10-18T11:00:49.358Z,4440
2017-10-18T11:01:58.216Z,4472
2017-10-18T11:03:07.066Z,4512
2017-10-18T11:04:16.316Z,4556
2017-10-18T11:05:25.170Z,4596
2017-10-18T11:06:34.023Z,4640
2017-10-18T11:07:42.876Z,4696
2017-10-18T11:08:51.733Z,4760
2017-10-18T11:10:00.846Z,4848
2017-10-18T11:11:09.692Z,4924
2017-10-18T11:12:18.540Z,5000
2017-10-18T11:13:27.394Z,5032
2017-10-18T11:14:36.249Z,5036
2017-10-18T11:15:45.352Z,5040
2017-10-18T11:16:54.207Z,5044
2017-10-18T11:18:03.062Z,5024
2017-10-18T11:19:11.916Z,5016
2017-10-18T11:20:20.766Z,5004
2017-10-18T11:21:29.923Z,4988
2017-10-18T11:22:38.776Z,4988
2017-10-18T11:23:47.627Z,4984
2017-10-18T11:24:56.479Z,4984
2017-10-18T11:26:05.331Z,4984
2017-10-18T11:27:14.831Z,4996
2017-10-18T11:28:23.685Z,5012
2017-10-18T11:29:32.537Z,5044
2017-10-18T11:30:41.391Z,5076
2017-10-18T11:31:50.243Z,5116
2017-10-18T11:32:59.198Z,5156
2017-10-18T11:34:08.057Z,5184
2017-10-18T11:35:16.910Z,5208
2017-10-18T11:36:25.762Z,5244
2017-10-18T11:37:34.629Z,5264
2017-10-18T11:38:43.774Z,5308
2017-10-18T11:39:52.626Z,5344
2017-10-18T11:41:01.479Z,5376
2017-10-18T11:42:10.337Z,5424
2017-10-18T11:43:19.189Z,5812
2017-10-18T11:44:28.045Z,8272
2017-10-18T11:45:36.900Z,9180
2017-10-18T11:46:45.756Z,6720
2017-10-18T11:47:54.610Z,6504
2017-10-18T11:49:03.462Z,7356
2017-10-18T11:50:12.368Z,8380
2017-10-18T11:51:21.224Z,9632
2017-10-18T11:52:30.074Z,9832
2017-10-18T11:53:38.926Z,8696
2017-10-18T11:54:47.775Z,9020
2017-10-18T11:55:56.932Z,7588
2017-10-18T11:57:05.784Z,6152
2017-10-18T11:58:14.642Z,6436
2017-10-18T11:59:23.495Z,7452
2017-10-18T12:00:32.694Z,7100
2017-10-18T12:01:41.546Z,7628
2017-10-18T12:02:50.404Z,7988
2017-10-18T12:03:59.256Z,7000
2017-10-18T12:05:08.109Z,7348
2017-10-18T12:06:16.962Z,8364
2017-10-18T12:07:26.116Z,6904
2017-10-18T12:08:34.976Z,9540
2017-10-18T12:09:44.174Z,8124
2017-10-18T12:10:53.035Z,6512
2017-10-18T12:12:01.891Z,6352
2017-10-18T12:13:10.892Z,6232
2017-10-18T12:14:19.744Z,6316
2017-10-18T12:15:28.948Z,6664
2017-10-18T12:16:37.803Z,7420
2017-10-18T12:17:46.658Z,7284
2017-10-18T12:18:55.813Z,6516
2017-10-18T12:20:04.768Z,6868
2017-10-18T12:21:13.623Z,7576
2017-10-18T12:22:22.478Z,7156
2017-10-18T12:23:31.338Z,7432
2017-10-18T12:24:40.205Z,8096
2017-10-18T12:25:49.063Z,7548
2017-10-18T12:26:57.915Z,6388
2017-10-18T12:28:06.772Z,6388
2017-10-18T12:29:15.631Z,6896
2017-10-18T12:30:24.639Z,9344
2017-10-18T12:31:33.496Z,8948
2017-10-18T12:32:42.360Z,10416
2017-10-18T12:33:51.216Z,11196
2017-10-18T12:35:00.072Z,10112
2017-10-18T12:36:08.979Z,9328
2017-10-18T12:37:17.834Z,8180
2017-10-18T12:38:26.690Z,8400
2017-10-18T12:39:35.545Z,9628
2017-10-18T12:40:44.398Z,9828
2017-10-18T12:41:53.302Z,7868
2017-10-18T12:43:02.157Z,7752
2017-10-18T12:44:11.013Z,9472
2017-10-18T12:45:19.873Z,8660
2017-10-18T12:46:28.728Z,7560
2017-10-18T12:47:37.682Z,11632
2017-10-18T12:48:46.546Z,13468
2017-10-18T12:49:55.774Z,10652
2017-10-18T12:51:04.960Z,8580
2017-10-18T12:52:13.813Z,9708
2017-10-18T12:53:22.867Z,8268
2017-10-18T12:54:31.722Z,8432
2017-10-18T12:55:40.576Z,10384
2017-10-18T12:56:49.432Z,8936
2017-10-18T12:57:58.291Z,9516
2017-10-18T12:59:07.392Z,11592
2017-10-18T13:00:16.254Z,9636
2017-10-18T13:01:25.465Z,7676
2017-10-18T13:02:34.318Z,9980
2017-10-18T13:03:43.180Z,8656
2017-10-18T13:04:52.580Z,7080
2017-10-18T13:06:01.437Z,6948
2017-10-18T13:07:10.296Z,8048
2017-10-18T13:08:19.151Z,8840
2017-10-18T13:09:28.006Z,8616
2017-10-18T13:10:37.261Z,6960
2017-10-18T13:11:46.121Z,6952
2017-10-18T13:12:54.975Z,7640
2017-10-18T13:14:04.178Z,10540
2017-10-18T13:15:13.032Z,11400
2017-10-18T13:16:21.985Z,10232
2017-10-18T13:17:31.190Z,10764
2017-10-18T13:18:40.044Z,9852
2017-10-18T13:19:48.899Z,8472
2017-10-18T13:20:57.757Z,8140
2017-10-18T13:22:06.764Z,8916
2017-10-18T13:23:15.620Z,11056
2017-10-18T13:24:24.476Z,9920
2017-10-18T13:25:33.332Z,7356
2017-10-18T13:26:42.527Z,7172
2017-10-18T13:27:51.486Z,8252
2017-10-18T13:29:00.341Z,8004
2017-10-18T13:30:09.196Z,8500
2017-10-18T13:31:18.056Z,8464
2017-10-18T13:32:26.908Z,8244
2017-10-18T13:33:35.811Z,7408
2017-10-18T13:34:44.668Z,6700
2017-10-18T13:35:53.530Z,6800
2017-10-18T13:37:02.385Z,6888
2017-10-18T13:38:11.244Z,6780
2017-10-18T13:39:20.301Z,7432
2017-10-18T13:40:29.156Z,7704
2017-10-18T13:41:38.010Z,8564
2017-10-18T13:42:46.869Z,7960
2017-10-18T13:43:55.727Z,7100
2017-10-18T13:45:04.732Z,7028
2017-10-18T13:46:13.585Z,7440
2017-10-18T13:47:22.492Z,7660
2017-10-18T13:48:31.348Z,7880
2017-10-18T13:49:40.205Z,8348
2017-10-18T13:50:49.264Z,8004
2017-10-18T13:51:58.113Z,7432
2017-10-18T13:53:06.969Z,7652
2017-10-18T13:54:15.828Z,7040
2017-10-18T13:55:24.687Z,6820
2017-10-18T13:56:33.643Z,6960
2017-10-18T13:57:42.500Z,7952
2017-10-18T13:58:51.354Z,7356
2017-10-18T14:00:00.215Z,6812
2017-10-18T14:01:09.069Z,7004
2017-10-18T14:02:18.075Z,6940
2017-10-18T14:03:26.927Z,6276
2017-10-18T14:04:35.782Z,6284
2017-10-18T14:05:44.980Z,5928
2017-10-18T14:06:53.834Z,5872
2017-10-18T14:08:03.042Z,5856
2017-10-18T14:09:11.902Z,6004
2017-10-18T14:10:20.756Z,5748
2017-10-18T14:11:29.609Z,5416
2017-10-18T14:12:38.467Z,4960
2017-10-18T14:13:47.474Z,4564
2017-10-18T14:14:56.332Z,4296
2017-10-18T14:16:05.840Z,4160
2017-10-18T14:17:14.695Z,4100
2017-10-18T14:18:23.550Z,4052
2017-10-18T14:19:32.405Z,4036
2017-10-18T14:20:41.260Z,3980
2017-10-18T14:21:50.114Z,3876
2017-10-18T14:22:58.966Z,3696
2017-10-18T14:24:07.828Z,3456
2017-10-18T14:25:16.682Z,3240
2017-10-18T14:26:25.538Z,3084
2017-10-18T14:27:34.390Z,2984
2017-10-18T14:28:43.245Z,2944
2017-10-18T14:29:52.102Z,2952
2017-10-18T14:31:00.958Z,3032
2017-10-18T14:32:09.817Z,3096
2017-10-18T14:33:18.676Z,3040
2017-10-18T14:34:27.532Z,2848
2017-10-18T14:35:36.387Z,2588
2017-10-18T14:36:45.523Z,2384
2017-10-18T14:37:54.454Z,2236
2017-10-18T14:39:03.797Z,2120
2017-10-18T14:40:12.754Z,2092
2017-10-18T14:41:21.979Z,2152
2017-10-18T14:42:31.273Z,2280
2017-10-18T14:43:40.178Z,2352
2017-10-18T14:44:49.262Z,2396
2017-10-18T14:45:58.327Z,2388
2017-10-18T14:47:07.666Z,2380
2017-10-18T14:48:16.759Z,2372
2017-10-18T14:49:26.049Z,2360
2017-10-18T14:50:35.408Z,2336
2017-10-18T14:51:44.407Z,2304
2017-10-18T14:52:53.667Z,2284
2017-10-18T14:54:02.624Z,2276
2017-10-18T14:55:12.269Z,2252
2017-10-18T14:56:22.268Z,2212
2017-10-18T14:57:31.204Z,2204
2017-10-18T14:58:40.067Z,2228
2017-10-18T14:59:48.944Z,2212
2017-10-18T15:00:57.804Z,2156
2017-10-18T15:02:06.876Z,2080
2017-10-18T15:03:15.737Z,1996
2017-10-18T15:04:24.589Z,1868
2017-10-18T15:05:33.848Z,1748
2017-10-18T15:06:42.689Z,1628
2017-10-18T15:07:51.769Z,1488
2017-10-18T15:09:00.704Z,1316
2017-10-18T15:10:09.584Z,1232
2017-10-18T15:11:18.436Z,1200
2017-10-18T15:12:27.593Z,1164
2017-10-18T15:13:36.453Z,1144
2017-10-18T15:14:45.665Z,1112
2017-10-18T15:15:54.523Z,1076
2017-10-18T15:17:03.378Z,1020
2017-10-18T15:18:12.236Z,964
2017-10-18T15:19:21.087Z,936
2017-10-18T15:20:29.943Z,900
2017-10-18T15:21:38.797Z,876
2017-10-18T15:22:47.653Z,892
2017-10-18T15:23:56.508Z,900
2017-10-18T15:25:05.646Z,920
2017-10-18T15:26:14.586Z,928
2017-10-18T15:27:24.269Z,876
2017-10-18T15:28:33.366Z,880
2017-10-18T15:29:42.599Z,916
2017-10-18T15:30:51.696Z,944
2017-10-18T15:32:00.797Z,976
2017-10-18T15:33:10.100Z,1044
2017-10-18T15:34:18.963Z,1124
2017-10-18T15:35:27.859Z,1148
2017-10-18T15:36:36.711Z,1152
2017-10-18T15:37:45.562Z,1184
2017-10-18T15:38:54.471Z,1212
2017-10-18T15:40:03.329Z,1200
2017-10-18T15:41:12.183Z,1140
2017-10-18T15:42:21.399Z,1072
2017-10-18T15:43:30.246Z,988
2017-10-18T15:44:39.300Z,912
2017-10-18T15:45:48.505Z,876
2017-10-18T15:46:57.357Z,844
2017-10-18T15:48:06.216Z,788
2017-10-18T15:49:15.067Z,728
2017-10-18T15:50:24.021Z,692
2017-10-18T15:51:32.873Z,672
2017-10-18T15:52:42.071Z,648
2017-10-18T15:53:50.930Z,624
2017-10-18T15:54:59.781Z,608
2017-10-18T15:56:08.741Z,580